Time;durP1;ratioP1;P1;durP2;ratioP2;P2;SDS_P1;SDS_P2;PMS_P1;PMS_P2;Temp;Humidity;BMP_temperature;BMP_pressure;BME280_temperature;BME280_humidity;BME280_pressure;Samples;Min_cycle;Max_cycle;Signal;HPM_P1;HPM_P2
2021/09/15 00:00:49;;;;;;;4.27;2.80;;;;;;;15.19;100.00;101046.84;5053411;28;20438;-71
2021/09/15 00:03:15;;;;;;;7.90;3.60;;;;;;;15.21;100.00;101043.78;5053227;28;20466;-71
2021/09/15 00:05:42;;;;;;;4.90;3.10;;;;;;;15.23;100.00;101038.81;5053312;28;20450;-71
2021/09/15 00:08:08;;;;;;;5.07;3.27;;;;;;;15.21;100.00;101039.13;5052787;28;20870;-71
2021/09/15 00:10:35;;;;;;;8.80;3.03;;;;;;;15.14;100.00;101044.28;5052908;28;20536;-70
2021/09/15 00:13:01;;;;;;;6.20;3.40;;;;;;;15.10;100.00;101035.13;5052693;28;21010;-70
2021/09/15 00:15:29;;;;;;;3.13;2.33;;;;;;;15.03;100.00;101026.59;5053195;28;20453;-70
2021/09/15 00:17:56;;;;;;;4.10;2.80;;;;;;;15.02;100.00;101030.47;5053082;28;20445;-71
2021/09/15 00:20:22;;;;;;;5.23;3.07;;;;;;;15.02;99.66;101027.75;5053197;28;20439;-71
2021/09/15 00:22:48;;;;;;;3.83;2.70;;;;;;;15.04;99.66;101023.56;5052608;28;20462;-70
2021/09/15 00:25:15;;;;;;;4.53;3.40;;;;;;;15.13;100.00;101020.81;5052737;28;20816;-71
2021/09/15 00:27:41;;;;;;;5.37;3.37;;;;;;;15.10;100.00;101018.75;5053046;28;20445;-71
2021/09/15 00:30:09;;;;;;;4.10;2.70;;;;;;;15.18;100.00;101017.94;5053024;28;20493;-71
2021/09/15 00:32:37;;;;;;;14.20;3.57;;;;;;;15.24;100.00;101016.66;5052942;28;20462;-69
2021/09/15 00:35:06;;;;;;;5.70;3.90;;;;;;;15.25;100.00;101010.06;5052900;28;20446;-71
2021/09/15 00:37:32;;;;;;;10.00;4.67;;;;;;;15.34;100.00;101012.81;5052993;28;20499;-71
2021/09/15 00:39:59;;;;;;;8.50;4.27;;;;;;;15.39;100.00;101005.25;5052628;28;20787;-72
2021/09/15 00:42:25;;;;;;;5.60;3.50;;;;;;;15.44;100.00;101017.91;5052847;28;20458;-71
2021/09/15 00:44:52;;;;;;;8.90;4.37;;;;;;;15.47;100.00;101013.75;5052935;28;20488;-70
2021/09/15 00:47:19;;;;;;;5.90;3.53;;;;;;;15.50;100.00;101004.94;5052841;28;20544;-71
2021/09/15 00:49:47;;;;;;;6.13;4.07;;;;;;;15.58;100.00;101012.28;5052433;28;21013;-71
2021/09/15 00:52:13;;;;;;;9.10;5.60;;;;;;;15.60;100.00;101013.56;5052749;28;20442;-71
2021/09/15 00:54:40;;;;;;;5.73;4.17;;;;;;;15.66;100.00;101011.50;5052699;28;20453;-70
2021/09/15 00:57:06;;;;;;;4.53;3.43;;;;;;;15.70;100.00;101015.19;5052677;28;20449;-71
2021/09/15 00:59:32;;;;;;;8.27;4.87;;;;;;;15.74;100.00;101007.94;5052434;28;20465;-70
2021/09/15 01:01:59;;;;;;;5.47;3.57;;;;;;;15.80;100.00;101016.75;5052669;28;20453;-70
2021/09/15 01:04:25;;;;;;;4.87;3.23;;;;;;;15.78;100.00;101011.63;5052708;28;20450;-69
2021/09/15 01:06:53;;;;;;;7.60;3.90;;;;;;;15.86;100.00;101015.47;5052672;28;20446;-70
2021/09/15 01:09:21;;;;;;;8.43;5.60;;;;;;;15.87;100.00;101012.41;5052597;28;20477;-70
2021/09/15 01:11:48;;;;;;;9.80;4.70;;;;;;;15.95;100.00;101012.72;5052236;28;20530;-70
2021/09/15 01:14:15;;;;;;;7.93;3.57;;;;;;;15.97;100.00;101002.25;5053461;28;20863;-72
2021/09/15 01:16:48;;;;;;;6.00;4.70;;;;;;;15.98;100.00;101001.09;5052675;28;20439;-71
2021/09/15 01:19:15;;;;;;;8.93;5.67;;;;;;;16.00;98.56;100996.13;5052119;28;20446;-71
2021/09/15 01:21:43;;;;;;;6.30;5.03;;;;;;;16.00;97.41;101002.41;5052795;28;20449;-71
2021/09/15 01:24:09;;;;;;;6.03;4.10;;;;;;;16.03;97.46;100995.50;5052455;28;20515;-71
2021/09/15 01:26:36;;;;;;;7.00;3.77;;;;;;;16.07;98.56;100993.69;5052631;28;20442;-72
2021/09/15 01:29:03;;;;;;;9.00;4.80;;;;;;;16.05;99.09;100977.63;5052351;28;20482;-71
2021/09/15 01:31:30;;;;;;;8.67;4.50;;;;;;;16.07;99.99;100985.47;5052485;28;20442;-71
2021/09/15 01:33:56;;;;;;;6.13;4.33;;;;;;;16.08;99.85;100982.44;5052751;28;20469;-71
2021/09/15 01:36:23;;;;;;;9.50;5.57;;;;;;;16.11;100.00;100978.22;5056039;28;20449;-71
2021/09/15 01:38:51;;;;;;;12.20;4.23;;;;;;;16.10;100.00;100974.69;5055904;28;20438;-71
2021/09/15 01:41:17;;;;;;;5.80;4.80;;;;;;;16.11;100.00;100976.31;5055896;28;20450;-71
2021/09/15 01:43:50;;;;;;;7.20;4.37;;;;;;;16.11;100.00;100976.31;5055901;28;20466;-70
2021/09/15 01:46:16;;;;;;;7.87;5.07;;;;;;;16.14;100.00;100977.59;5055851;28;20426;-72
2021/09/15 01:48:43;;;;;;;8.10;4.23;;;;;;;16.14;100.00;100975.66;5055788;28;20446;-72
2021/09/15 01:51:09;;;;;;;9.90;5.50;;;;;;;16.15;100.00;100977.25;5055723;28;20442;-70
2021/09/15 01:53:35;;;;;;;9.40;4.97;;;;;;;16.19;100.00;100977.41;5055642;28;20462;-70
2021/09/15 01:56:03;;;;;;;9.80;5.30;;;;;;;16.22;100.00;100962.28;5055553;28;20449;-72
2021/09/15 01:58:30;;;;;;;6.47;3.90;;;;;;;16.22;100.00;100956.81;5055395;28;20943;-72
2021/09/15 02:00:56;;;;;;;5.73;3.97;;;;;;;16.23;100.00;100961.13;5055498;28;20434;-72
2021/09/15 02:03:23;;;;;;;7.97;3.77;;;;;;;16.25;100.00;100967.09;5055405;28;20462;-70
2021/09/15 02:05:49;;;;;;;6.83;4.53;;;;;;;16.29;100.00;100962.53;5055148;28;20933;-72
2021/09/15 02:08:15;;;;;;;7.27;5.50;;;;;;;16.32;100.00;100967.38;5055469;28;20446;-72
2021/09/15 02:10:43;;;;;;;7.17;5.10;;;;;;;16.34;100.00;100960.44;5055343;28;20539;-72
2021/09/15 02:13:11;;;;;;;7.67;4.73;;;;;;;16.37;100.00;100954.28;5054950;28;20830;-71
2021/09/15 02:15:38;;;;;;;9.17;5.30;;;;;;;16.37;100.00;100951.56;5054932;28;20958;-70
2021/09/15 02:18:04;;;;;;;8.90;5.20;;;;;;;16.37;99.27;100937.88;5055259;28;20446;-71
2021/09/15 02:20:31;;;;;;;8.07;5.50;;;;;;;16.35;98.37;100940.16;5055232;28;20445;-70
2021/09/15 02:22:58;;;;;;;9.27;6.00;;;;;;;16.38;98.19;100942.25;5047455;28;20471;-69
2021/09/15 02:25:24;;;;;;;6.93;5.30;;;;;;;16.43;98.50;100941.25;5043905;28;20458;-67
2021/09/15 02:27:51;;;;;;;10.60;5.67;;;;;;;16.42;99.34;100942.38;5054962;28;20442;-72
2021/09/15 02:30:19;;;;;;;6.57;4.57;;;;;;;16.51;99.60;100942.31;5054850;28;20501;-71
2021/09/15 02:32:45;;;;;;;7.47;5.20;;;;;;;16.53;99.78;100937.31;5054161;28;21014;-69
2021/09/15 02:35:12;;;;;;;16.20;7.43;;;;;;;16.60;99.65;100934.84;5054851;28;20450;-70
2021/09/15 02:37:39;;;;;;;9.97;6.40;;;;;;;16.63;99.38;100947.84;5054807;28;20541;-70
2021/09/15 02:40:07;;;;;;;7.77;4.97;;;;;;;16.65;99.52;100938.19;5047957;28;20439;-71
2021/09/15 02:42:33;;;;;;;8.83;5.50;;;;;;;16.71;99.33;100938.78;5034806;28;20466;-70
2021/09/15 02:45:00;;;;;;;11.60;6.13;;;;;;;16.74;99.24;100934.63;5034355;28;20454;-71
2021/09/15 02:47:27;;;;;;;9.20;6.60;;;;;;;16.73;99.15;100925.59;5034784;28;20446;-69
2021/09/15 02:49:54;;;;;;;11.63;6.40;;;;;;;16.79;99.00;100927.00;5034214;28;21000;-71
2021/09/15 02:52:20;;;;;;;11.00;5.50;;;;;;;16.83;98.46;100924.41;5034320;28;20463;-71
2021/09/15 02:54:46;;;;;;;9.70;5.77;;;;;;;16.83;98.14;100919.75;5037412;28;20461;-70
2021/09/15 02:57:13;;;;;;;14.97;6.10;;;;;;;16.86;98.06;100918.25;5054167;28;20993;-71
2021/09/15 02:59:39;;;;;;;10.63;6.87;;;;;;;16.84;98.24;100913.13;5054390;28;20450;-69
2021/09/15 03:02:06;;;;;;;12.80;7.27;;;;;;;16.84;98.33;100921.34;5054432;28;20457;-70
2021/09/15 03:04:33;;;;;;;12.93;6.70;;;;;;;16.90;98.01;100927.41;5038975;28;20451;-70
2021/09/15 03:07:00;;;;;;;13.83;6.33;;;;;;;16.91;97.90;100920.81;5034354;28;20470;-71
2021/09/15 03:09:26;;;;;;;10.70;6.40;;;;;;;16.89;97.20;100920.34;5034103;28;20514;-71
2021/09/15 03:11:53;;;;;;;10.80;6.13;;;;;;;16.88;96.08;100914.06;5034200;28;20447;-71
2021/09/15 03:14:19;;;;;;;9.43;6.03;;;;;;;16.86;95.21;100910.03;5046161;28;20453;-70
2021/09/15 03:16:46;;;;;;;14.10;6.47;;;;;;;16.80;94.64;100909.47;5054091;28;20484;-68
2021/09/15 03:19:12;;;;;;;12.30;6.33;;;;;;;16.79;94.76;100902.41;5053789;28;20446;-70
2021/09/15 03:21:41;;;;;;;8.00;5.70;;;;;;;16.82;96.03;100901.72;5053652;28;20457;-69
2021/09/15 03:24:08;;;;;;;12.03;6.03;;;;;;;16.82;96.88;100904.47;5053827;28;20470;-70
2021/09/15 03:26:34;;;;;;;7.60;5.13;;;;;;;16.85;97.33;100894.78;5053973;28;20449;-70
2021/09/15 03:29:01;;;;;;;8.70;5.83;;;;;;;16.82;97.87;100887.22;5042648;28;20450;-71
2021/09/15 03:31:27;;;;;;;11.77;5.87;;;;;;;16.90;97.59;100894.56;5033865;28;20447;-70
2021/09/15 03:33:54;;;;;;;9.20;5.63;;;;;;;16.85;97.85;100886.56;5033450;28;20815;-70
2021/09/15 03:36:20;;;;;;;11.30;6.00;;;;;;;16.88;97.84;100886.69;5033561;28;20432;-71
2021/09/15 03:38:48;;;;;;;7.60;5.30;;;;;;;16.92;97.87;100877.81;5039985;28;20447;-68
2021/09/15 03:41:15;;;;;;;12.37;6.13;;;;;;;16.96;97.57;100879.56;5042161;28;20442;-69
2021/09/15 03:43:41;;;;;;;8.30;5.47;;;;;;;17.01;97.37;100873.06;5042783;28;20818;-70
2021/09/15 03:46:08;;;;;;;7.20;6.23;;;;;;;17.03;97.35;100868.03;5053635;28;20450;-69
2021/09/15 03:48:34;;;;;;;9.43;6.23;;;;;;;17.03;97.68;100871.56;5044988;28;20447;-69
2021/09/15 03:51:00;;;;;;;12.50;6.80;;;;;;;17.00;97.56;100866.78;5033471;28;20487;-71
2021/09/15 03:53:27;;;;;;;8.57;5.80;;;;;;;17.05;97.21;100874.00;5033430;28;20478;-70
2021/09/15 03:55:55;;;;;;;12.70;7.40;;;;;;;17.06;97.59;100870.91;5033186;28;20509;-71
2021/09/15 03:58:21;;;;;;;12.20;6.47;;;;;;;17.07;97.52;100871.69;5038137;28;20453;-70
2021/09/15 04:00:48;;;;;;;19.70;6.40;;;;;;;17.10;97.63;100876.50;5053351;28;20445;-70
2021/09/15 04:03:14;;;;;;;17.33;6.70;;;;;;;17.12;97.35;100868.75;5053202;28;20462;-69
2021/09/15 04:05:40;;;;;;;10.67;6.87;;;;;;;17.12;97.61;100857.81;5053303;28;20457;-69
2021/09/15 04:08:07;;;;;;;10.60;5.57;;;;;;;17.15;97.33;100866.13;5053200;28;20449;-68
2021/09/15 04:10:33;;;;;;;11.50;5.43;;;;;;;17.15;97.08;100857.13;5053127;28;20482;-68
2021/09/15 04:13:01;;;;;;;12.53;7.20;;;;;;;17.14;96.94;100858.28;5047578;28;20489;-67
2021/09/15 04:15:28;;;;;;;9.60;6.00;;;;;;;17.13;97.46;100862.97;5033218;28;20449;-69
2021/09/15 04:17:54;;;;;;;9.40;6.47;;;;;;;17.16;97.33;100869.69;5033186;28;20443;-69
2021/09/15 04:20:21;;;;;;;10.60;6.33;;;;;;;17.18;97.43;100866.59;5039173;28;20450;-68
2021/09/15 04:22:48;;;;;;;10.50;5.97;;;;;;;17.20;97.36;100865.13;5052977;28;20466;-66
2021/09/15 04:33:29;;;;;;;11.50;7.63;;;;;;;17.00;94.97;100861.31;5032805;28;20450;-67
2021/09/15 04:35:55;;;;;;;10.60;6.50;;;;;;;16.98;93.97;100863.56;5050023;28;20452;-68
2021/09/15 04:38:21;;;;;;;11.10;6.50;;;;;;;16.97;93.95;100861.19;5052836;28;20451;-66
2021/09/15 04:40:48;;;;;;;10.43;5.33;;;;;;;16.96;95.00;100857.66;5047352;28;20453;-68
2021/09/15 04:43:14;;;;;;;15.13;6.43;;;;;;;16.93;96.45;100858.31;5040497;28;20459;-67
2021/09/15 04:45:41;;;;;;;10.70;5.83;;;;;;;17.01;97.15;100856.66;5032649;28;20443;-67
2021/09/15 04:48:08;;;;;;;10.17;6.00;;;;;;;17.03;97.28;100857.09;5032208;28;20447;-67
2021/09/15 04:50:35;;;;;;;8.63;5.80;;;;;;;17.05;97.24;100847.41;5037653;28;20827;-69
2021/09/15 04:53:01;;;;;;;6.13;4.93;;;;;;;17.09;97.61;100855.75;5045783;28;20877;-69
2021/09/15 04:55:29;;;;;;;11.23;7.20;;;;;;;17.10;97.68;100851.88;5046417;28;20446;-68
2021/09/15 04:57:55;;;;;;;10.67;6.63;;;;;;;17.07;97.83;100849.81;5043885;28;20466;-69
2021/09/15 05:00:22;;;;;;;15.77;7.77;;;;;;;17.09;98.02;100853.03;5051036;28;20434;-68
2021/09/15 05:02:48;;;;;;;10.30;6.63;;;;;;;17.14;97.72;100855.53;5052661;28;20462;-67
2021/09/15 05:05:16;;;;;;;14.43;7.73;;;;;;;17.17;97.71;100857.59;5040730;28;20444;-69
2021/09/15 05:07:42;;;;;;;11.70;6.70;;;;;;;17.16;97.34;100853.25;5032813;28;20849;-71
2021/09/15 05:10:10;;;;;;;12.70;6.37;;;;;;;17.17;95.78;100857.59;5056019;28;20481;-70
2021/09/15 05:12:36;;;;;;;14.30;6.77;;;;;;;17.09;94.39;100845.59;5056206;28;20477;-69
2021/09/15 05:15:03;;;;;;;10.63;6.40;;;;;;;17.06;94.24;100854.47;5056434;28;20422;-70
2021/09/15 05:17:30;;;;;;;16.40;6.87;;;;;;;17.06;95.25;100849.00;5056598;28;20442;-70
2021/09/15 05:19:56;;;;;;;9.87;6.70;;;;;;;17.11;95.92;100845.25;5056337;28;20490;-71
2021/09/15 05:22:24;;;;;;;30.53;7.43;;;;;;;17.15;96.57;100841.50;5056276;28;20462;-70
2021/09/15 05:24:50;;;;;;;13.80;7.10;;;;;;;17.16;96.85;100836.81;5045576;28;20443;-72
2021/09/15 05:27:17;;;;;;;10.43;7.30;;;;;;;17.18;97.49;100839.22;5056281;28;20442;-71
2021/09/15 05:29:45;;;;;;;11.20;5.50;;;;;;;17.21;97.40;100831.13;5056203;28;20453;-70
2021/09/15 05:32:12;;;;;;;11.40;7.27;;;;;;;17.24;97.62;100835.13;5054719;28;20982;-71
2021/09/15 05:34:38;;;;;;;9.47;6.87;;;;;;;17.27;97.40;100837.22;5036089;28;20541;-71
2021/09/15 05:37:05;;;;;;;12.87;7.17;;;;;;;17.30;97.34;100834.56;5035979;28;20450;-72
2021/09/15 05:39:32;;;;;;;16.10;8.13;;;;;;;17.33;97.64;100831.16;5055662;28;20446;-70
2021/09/15 05:41:59;;;;;;;11.37;7.07;;;;;;;17.37;97.34;100831.28;5056065;28;20894;-72
2021/09/15 05:44:25;;;;;;;8.87;5.70;;;;;;;17.42;96.77;100830.25;5053258;28;20446;-72
2021/09/15 05:46:52;;;;;;;13.33;7.33;;;;;;;17.43;96.94;100840.06;5037972;28;20443;-72
2021/09/15 05:49:18;;;;;;;11.33;7.07;;;;;;;17.47;96.62;100833.56;5051433;28;20453;-72
2021/09/15 05:51:45;;;;;;;12.93;8.03;;;;;;;17.49;96.69;100835.97;5055444;28;21003;-70
2021/09/15 05:54:11;;;;;;;10.77;7.00;;;;;;;17.51;96.38;100839.94;5055641;28;20521;-72
2021/09/15 05:56:39;;;;;;;10.07;6.40;;;;;;;17.56;96.45;100841.66;5055649;28;20453;-71
2021/09/15 05:59:05;;;;;;;14.03;8.57;;;;;;;17.57;96.32;100840.53;5050860;28;20471;-70
2021/09/15 06:01:32;;;;;;;11.20;8.43;;;;;;;17.63;96.07;100833.69;5045965;28;20442;-71
2021/09/15 06:03:58;;;;;;;14.80;8.40;;;;;;;17.64;95.75;100824.31;5051453;28;20462;-72
2021/09/15 06:06:25;;;;;;;9.83;6.73;;;;;;;17.67;95.71;100820.91;5052465;28;20457;-71
2021/09/15 06:08:51;;;;;;;14.73;6.50;;;;;;;17.67;95.88;100829.13;5047386;28;20439;-72
2021/09/15 06:11:18;;;;;;;13.83;6.57;;;;;;;17.69;95.96;100831.50;5035256;28;20487;-72
2021/09/15 06:13:45;;;;;;;8.93;5.90;;;;;;;17.74;95.61;100825.81;5048667;28;20476;-70
2021/09/15 06:16:12;;;;;;;12.80;6.07;;;;;;;17.81;95.85;100826.06;5044696;28;20522;-72
2021/09/15 06:18:39;;;;;;;11.63;6.63;;;;;;;17.88;95.34;100827.09;5035343;28;20443;-71
2021/09/15 06:21:05;;;;;;;10.87;6.80;;;;;;;17.94;94.88;100832.34;5035368;28;20447;-71
2021/09/15 06:23:32;;;;;;;11.70;7.20;;;;;;;18.00;94.65;100830.94;5035106;28;20467;-71
2021/09/15 06:26:00;;;;;;;26.57;6.93;;;;;;;18.09;94.37;100837.09;5050092;28;20529;-71
2021/09/15 06:28:27;;;;;;;9.03;6.20;;;;;;;18.14;93.96;100826.69;5050591;28;20457;-72
2021/09/15 06:30:55;;;;;;;9.23;6.33;;;;;;;18.19;93.82;100825.63;5035371;28;20966;-72
2021/09/15 06:33:21;;;;;;;10.43;6.13;;;;;;;18.22;93.49;100827.69;5040309;28;20813;-73
2021/09/15 06:35:48;;;;;;;11.00;7.67;;;;;;;18.27;93.66;100835.69;5043701;28;20456;-72
2021/09/15 06:38:15;;;;;;;8.40;6.47;;;;;;;18.26;93.74;100823.13;5053223;28;20474;-70
2021/09/15 06:40:42;;;;;;;16.80;7.87;;;;;;;18.19;94.30;100825.63;5053656;28;20447;-67
2021/09/15 06:43:08;;;;;;;12.33;7.53;;;;;;;18.22;93.17;100819.47;5054671;28;20454;-71
2021/09/15 06:45:35;;;;;;;12.13;6.93;;;;;;;18.22;91.52;100815.94;5054728;28;20465;-71
2021/09/15 06:48:03;;;;;;;12.20;6.70;;;;;;;18.20;90.83;100813.56;5054665;28;20442;-72
2021/09/15 06:50:29;;;;;;;8.40;6.20;;;;;;;18.20;90.23;100816.28;5054542;28;20561;-72
2021/09/15 06:52:56;;;;;;;9.60;7.00;;;;;;;18.22;90.37;100810.44;5054486;28;20465;-72
2021/09/15 06:55:24;;;;;;;10.47;6.90;;;;;;;18.30;91.20;100818.53;5054602;28;20446;-71
2021/09/15 06:57:51;;;;;;;11.83;6.90;;;;;;;18.40;92.05;100812.56;5054490;28;20477;-72
2021/09/15 07:00:18;;;;;;;17.20;7.30;;;;;;;18.50;93.11;100804.97;5054448;28;20477;-71
2021/09/15 07:02:46;;;;;;;10.57;7.40;;;;;;;18.58;92.23;100818.53;5054030;28;20920;-72
2021/09/15 07:05:14;;;;;;;12.63;7.10;;;;;;;18.58;91.89;100828.72;5054519;28;20460;-72
2021/09/15 07:07:42;;;;;;;13.97;8.20;;;;;;;18.64;91.02;100822.66;5054353;28;20446;-73
2021/09/15 07:10:10;;;;;;;10.60;7.30;;;;;;;18.66;90.86;100827.78;5054237;28;20782;-70
2021/09/15 07:12:38;;;;;;;11.67;7.33;;;;;;;18.75;91.15;100812.00;5055290;28;20482;-70
2021/09/15 07:15:05;;;;;;;12.20;7.33;;;;;;;18.80;91.06;100813.69;5053975;28;20912;-68
2021/09/15 07:17:32;;;;;;;10.80;6.70;;;;;;;18.92;90.05;100819.09;5054159;28;20466;-69
2021/09/15 07:19:58;;;;;;;9.60;6.77;;;;;;;18.99;89.30;100816.56;5054009;28;20442;-70
2021/09/15 07:22:26;;;;;;;13.20;6.47;;;;;;;19.13;89.30;100816.13;5053964;28;20473;-69
2021/09/15 07:24:52;;;;;;;14.13;7.30;;;;;;;19.26;88.70;100808.63;5053972;28;20446;-68
2021/09/15 07:27:19;;;;;;;12.53;8.80;;;;;;;19.35;88.76;100822.97;5053956;28;20465;-68
2021/09/15 07:29:45;;;;;;;14.00;7.63;;;;;;;19.42;87.42;100815.66;5053823;28;20469;-68
2021/09/15 07:32:12;;;;;;;18.40;7.70;;;;;;;19.50;87.50;100815.84;5052818;28;20489;-69
2021/09/15 07:34:39;;;;;;;10.23;6.23;;;;;;;19.55;87.46;100824.63;5053855;28;20430;-73
2021/09/15 07:37:06;;;;;;;12.30;7.77;;;;;;;19.56;87.15;100817.16;5053814;28;20450;-68
2021/09/15 07:39:34;;;;;;;12.33;6.83;;;;;;;19.57;87.61;100816.03;5053844;28;20461;-67
2021/09/15 07:42:00;;;;;;;9.60;5.90;;;;;;;19.59;87.49;100811.75;5053543;28;20831;-68
2021/09/15 07:44:27;;;;;;;13.50;7.47;;;;;;;19.60;88.16;100816.13;5053598;28;20445;-67
2021/09/15 07:46:53;;;;;;;9.67;6.70;;;;;;;19.67;87.57;100800.97;5053577;28;20449;-68
2021/09/15 07:49:20;;;;;;;12.60;7.30;;;;;;;19.70;87.29;100814.81;5053556;28;20520;-68
2021/09/15 07:51:46;;;;;;;9.07;5.83;;;;;;;19.76;86.89;100813.38;5053456;28;20481;-70
2021/09/15 07:54:13;;;;;;;10.00;6.53;;;;;;;19.80;87.62;100808.75;5053143;28;20465;-72
2021/09/15 07:56:40;;;;;;;10.93;7.20;;;;;;;19.87;87.05;100817.16;5053162;28;20936;-70
2021/09/15 07:59:07;;;;;;;11.00;6.53;;;;;;;19.97;87.52;100820.53;5053112;28;20839;-71
2021/09/15 08:01:33;;;;;;;11.43;6.83;;;;;;;20.01;87.58;100813.94;5052882;28;20465;-71
2021/09/15 08:04:00;;;;;;;9.10;5.93;;;;;;;20.03;86.35;100822.63;5053286;28;20462;-72
2021/09/15 08:06:26;;;;;;;9.30;6.57;;;;;;;20.03;86.67;100813.56;5053304;28;20446;-72
2021/09/15 08:08:53;;;;;;;9.33;6.00;;;;;;;19.99;87.13;100815.44;5052876;28;20473;-71
2021/09/15 08:11:19;;;;;;;8.43;5.50;;;;;;;19.99;87.28;100818.19;5053129;28;20520;-70
2021/09/15 08:13:47;;;;;;;10.50;6.73;;;;;;;20.04;87.15;100817.91;5052423;28;20868;-69
2021/09/15 08:16:14;;;;;;;7.40;5.80;;;;;;;20.06;86.78;100818.38;5053120;28;20857;-70
2021/09/15 08:18:40;;;;;;;17.80;7.57;;;;;;;20.07;86.43;100814.44;5053172;28;20446;-69
2021/09/15 08:21:07;;;;;;;10.77;7.30;;;;;;;20.12;85.77;100814.97;5053005;28;20803;-69
2021/09/15 08:23:34;;;;;;;16.67;8.27;;;;;;;20.23;85.74;100817.94;5052698;28;20466;-69
2021/09/15 08:26:00;;;;;;;8.90;6.00;;;;;;;20.30;85.56;100811.78;5053021;28;20459;-68
2021/09/15 08:28:27;;;;;;;11.30;6.37;;;;;;;20.42;85.19;100801.44;5052979;28;20536;-69
2021/09/15 08:30:55;;;;;;;14.07;7.87;;;;;;;20.53;85.06;100806.38;5052910;28;20556;-68
2021/09/15 08:33:21;;;;;;;8.57;6.07;;;;;;;20.59;84.92;100802.19;5052782;28;20462;-67
2021/09/15 08:35:48;;;;;;;9.83;6.47;;;;;;;20.71;84.43;100799.25;5052955;28;20936;-69
2021/09/15 08:38:15;;;;;;;9.67;7.77;;;;;;;20.74;84.46;100806.81;5053111;28;20438;-69
2021/09/15 08:40:42;;;;;;;13.50;6.50;;;;;;;20.84;84.12;100802.66;5053297;28;20453;-68
2021/09/15 08:43:08;;;;;;;9.80;6.03;;;;;;;20.89;84.87;100803.16;5053830;28;20519;-69
2021/09/15 08:45:35;;;;;;;6.70;5.10;;;;;;;21.03;84.35;100799.03;5056919;28;20939;-68
2021/09/15 08:48:03;;;;;;;10.33;6.00;;;;;;;21.17;83.85;100793.81;5057397;28;20816;-68
2021/09/15 08:50:31;;;;;;;15.20;7.03;;;;;;;21.32;83.19;100803.91;5057108;28;20450;-69
2021/09/15 08:52:58;;;;;;;8.97;6.13;;;;;;;21.45;81.87;100796.25;5056954;28;20494;-68
2021/09/15 08:55:24;;;;;;;13.17;6.47;;;;;;;21.54;81.62;100790.47;5057111;28;20438;-69
2021/09/15 08:57:51;;;;;;;8.70;6.07;;;;;;;21.65;81.28;100788.69;5056655;28;20461;-69
2021/09/15 09:00:17;;;;;;;7.70;5.80;;;;;;;21.77;81.34;100796.72;5056829;28;20497;-68
2021/09/15 09:02:47;;;;;;;9.00;5.60;;;;;;;21.89;80.84;100788.25;5056555;28;20466;-68
2021/09/15 09:05:16;;;;;;;10.53;6.93;;;;;;;21.92;79.91;100789.47;5056682;28;20438;-68
2021/09/15 09:07:42;;;;;;;7.47;5.87;;;;;;;22.01;79.75;100781.72;5056379;28;20881;-68
2021/09/15 09:10:11;;;;;;;7.00;5.83;;;;;;;22.08;79.29;100779.03;5056672;28;20445;-69
2021/09/15 09:12:40;;;;;;;12.20;6.87;;;;;;;22.16;79.10;100793.75;5056491;28;20851;-69
2021/09/15 09:15:15;;;;;;;7.73;5.37;;;;;;;22.28;76.83;100792.72;5056529;28;20972;-70
2021/09/15 09:17:43;;;;;;;7.37;4.70;;;;;;;22.37;76.66;100787.72;5056447;28;20542;-68
2021/09/15 09:20:21;;;;;;;11.83;5.70;;;;;;;22.51;77.70;100784.31;5056417;28;20446;-69
2021/09/15 09:23:02;;;;;;;7.80;5.90;;;;;;;22.60;77.87;100779.28;5056289;28;20454;-68
2021/09/15 09:25:30;;;;;;;8.40;6.20;;;;;;;22.62;77.67;100780.50;5056304;28;20437;-69
2021/09/15 09:27:57;;;;;;;12.97;5.50;;;;;;;22.71;77.52;100780.19;5056221;28;20446;-68
2021/09/15 09:30:34;;;;;;;9.17;6.13;;;;;;;22.79;77.56;100778.28;5056209;28;20446;-68
2021/09/15 09:33:01;;;;;;;10.13;6.33;;;;;;;22.90;75.79;100776.47;5055656;28;20866;-70
2021/09/15 09:35:39;;;;;;;6.53;5.67;;;;;;;23.00;74.53;100778.53;5055753;28;20445;-69
2021/09/15 09:38:23;;;;;;;8.33;5.40;;;;;;;23.17;73.72;100774.34;5056023;28;20430;-70
2021/09/15 09:41:01;;;;;;;7.57;5.47;;;;;;;23.32;72.34;100772.47;5055704;28;20422;-68
2021/09/15 09:43:29;;;;;;;9.53;5.60;;;;;;;23.48;73.49;100766.66;5056137;28;20454;-70
2021/09/15 09:45:55;;;;;;;6.97;5.80;;;;;;;23.55;73.76;100761.16;5055609;28;20442;-68
2021/09/15 09:48:29;;;;;;;10.03;4.60;;;;;;;23.69;72.16;100766.84;5055838;28;20434;-69
2021/09/15 09:50:57;;;;;;;10.10;6.00;;;;;;;23.76;70.39;100758.56;5055813;28;20450;-69
2021/09/15 09:53:23;;;;;;;8.10;5.50;;;;;;;23.92;70.62;100761.81;5055642;28;20490;-70
2021/09/15 09:55:50;;;;;;;7.00;5.20;;;;;;;24.13;72.38;100761.13;5054684;28;20449;-70
2021/09/15 09:58:22;;;;;;;9.03;6.47;;;;;;;24.27;70.53;100752.09;5055345;28;20979;-71
2021/09/15 10:00:49;;;;;;;7.53;5.47;;;;;;;24.32;68.94;100754.47;5055661;28;20434;-71
2021/09/15 10:03:16;;;;;;;6.23;4.13;;;;;;;24.39;69.05;100753.72;5055498;28;20462;-73
2021/09/15 10:05:44;;;;;;;8.33;5.17;;;;;;;24.42;69.21;100756.50;5055591;28;20461;-70
2021/09/15 10:08:12;;;;;;;8.80;6.30;;;;;;;24.54;69.59;100749.81;5055478;28;20478;-69
2021/09/15 10:10:41;;;;;;;6.33;4.60;;;;;;;24.47;69.71;100740.69;5055303;28;20442;-69
2021/09/15 10:13:09;;;;;;;6.13;5.43;;;;;;;24.41;69.92;100730.00;5054981;28;20582;-72
2021/09/15 10:15:44;;;;;;;7.50;5.00;;;;;;;24.55;69.77;100734.78;5055351;28;20435;-69
2021/09/15 10:18:12;;;;;;;9.20;5.90;;;;;;;24.69;69.09;100736.78;5055344;28;20433;-72
2021/09/15 10:20:39;;;;;;;6.97;5.60;;;;;;;24.81;69.56;100738.38;5055975;28;20454;-73
2021/09/15 10:23:37;;;;;;;7.97;5.47;;;;;;;24.79;68.99;100738.78;5055097;28;20470;-72
2021/09/15 10:26:30;;;;;;;8.03;6.20;;;;;;;24.69;70.73;100736.00;5055147;28;20480;-71
2021/09/15 10:29:28;;;;;;;6.87;5.10;;;;;;;24.61;69.18;100724.91;5055115;28;20445;-72
2021/09/15 10:31:59;;;;;;;8.30;5.53;;;;;;;24.56;69.61;100727.25;5055067;28;20466;-72
2021/09/15 10:34:55;;;;;;;5.50;4.40;;;;;;;24.45;71.96;100723.69;5054975;28;20426;-71
2021/09/15 10:37:49;;;;;;;7.27;5.27;;;;;;;24.31;71.51;100722.44;4974022;28;20433;-70
2021/09/15 10:40:31;;;;;;;5.10;4.23;;;;;;;24.22;71.79;100712.94;5050049;28;21003;-72
2021/09/15 10:42:58;;;;;;;7.07;5.10;;;;;;;24.22;71.78;100713.72;5054659;28;20471;-71
2021/09/15 10:45:26;;;;;;;8.20;5.30;;;;;;;24.20;69.66;100706.97;5054703;28;20442;-71
2021/09/15 10:47:58;;;;;;;7.13;5.10;;;;;;;24.22;70.91;100702.66;5054679;28;20525;-69
2021/09/15 10:50:55;;;;;;;7.13;5.30;;;;;;;24.29;71.74;100701.84;5054495;28;20437;-70
2021/09/15 10:53:23;;;;;;;6.67;4.60;;;;;;;24.39;69.78;100707.47;4973408;28;20486;-70
2021/09/15 10:55:56;;;;;;;7.50;5.43;;;;;;;24.49;69.16;100702.34;5036195;28;20987;-70
2021/09/15 10:58:24;;;;;;;5.30;4.57;;;;;;;24.60;70.92;100706.69;5054195;28;20881;-72
2021/09/15 11:00:53;;;;;;;5.60;4.70;;;;;;;24.68;70.97;100699.19;5054472;28;20442;-70
2021/09/15 11:03:25;;;;;;;13.87;5.20;;;;;;;24.74;69.99;100696.81;5054237;28;20634;-70
2021/09/15 11:05:52;;;;;;;7.33;4.67;;;;;;;24.73;71.31;100690.47;5054363;28;20438;-70
2021/09/15 11:08:23;;;;;;;7.33;5.80;;;;;;;24.72;69.06;100694.44;5054233;28;20438;-69
2021/09/15 11:10:51;;;;;;;6.47;4.90;;;;;;;24.70;71.08;100688.47;5054326;28;20472;-69
2021/09/15 11:13:45;;;;;;;5.83;4.73;;;;;;;24.66;71.40;100682.19;5053808;28;20561;-69
2021/09/15 11:16:36;;;;;;;5.27;4.20;;;;;;;24.66;72.85;100674.66;5054247;28;20438;-69
2021/09/15 11:19:12;;;;;;;8.70;5.50;;;;;;;24.72;73.22;100672.28;5054179;28;20433;-69
2021/09/15 11:21:41;;;;;;;5.67;4.60;;;;;;;24.79;73.00;100682.56;5053795;28;20926;-68
2021/09/15 11:24:14;;;;;;;11.10;4.73;;;;;;;24.78;72.66;100679.00;5053912;28;20458;-69
2021/09/15 11:26:48;;;;;;;7.70;5.50;;;;;;;24.79;70.90;100674.25;5054000;28;20422;-69
2021/09/15 11:29:16;;;;;;;8.13;5.13;;;;;;;24.80;71.64;100671.09;5054034;28;20794;-68
2021/09/15 11:31:44;;;;;;;7.60;4.90;;;;;;;24.77;69.89;100666.34;5053384;28;20450;-68